Time;durP1;ratioP1;P1;durP2;ratioP2;P2;SDS_P1;SDS_P2;PMS_P1;PMS_P2;Temp;Humidity;BMP_temperature;BMP_pressure;BME280_temperature;BME280_humidity;BME280_pressure;Samples;Min_cycle;Max_cycle;Signal;HPM_P1;HPM_P2
2021/07/20 00:02:06;;;;;;;7.83;4.93;;;16.80;99.00;;;;;;6074955;23;20859;-78
2021/07/20 00:04:35;;;;;;;8.10;6.60;;;16.80;99.00;;;;;;6101551;23;20770;-78
2021/07/20 00:07:05;;;;;;;5.93;5.30;;;16.80;99.00;;;;;;6074407;23;20435;-78
2021/07/20 00:09:34;;;;;;;6.70;4.53;;;16.80;99.00;;;;;;6109409;23;20393;-78
2021/07/20 00:12:03;;;;;;;8.10;6.30;;;16.80;99.00;;;;;;6110913;23;20429;-78
2021/07/20 00:14:31;;;;;;;6.00;5.40;;;16.80;99.00;;;;;;6076329;23;20964;-78
2021/07/20 00:16:59;;;;;;;7.57;5.40;;;16.80;99.00;;;;;;6074603;23;20425;-78
2021/07/20 00:19:28;;;;;;;8.07;5.90;;;16.80;99.00;;;;;;6112516;23;20412;-78
2021/07/20 00:21:56;;;;;;;7.30;5.60;;;16.80;99.10;;;;;;6074289;23;20494;-78
2021/07/20 00:24:26;;;;;;;9.37;5.50;;;16.70;99.10;;;;;;6077028;23;20802;-78
2021/07/20 00:26:54;;;;;;;6.23;5.47;;;16.70;99.10;;;;;;6078400;23;20400;-78
2021/07/20 00:29:22;;;;;;;13.90;6.30;;;16.70;99.10;;;;;;6097968;23;20440;-78
2021/07/20 00:31:50;;;;;;;7.13;5.30;;;16.70;99.10;;;;;;6107636;23;20486;-77
2021/07/20 00:34:19;;;;;;;9.37;6.13;;;16.70;99.20;;;;;;6072243;23;20939;-78
2021/07/20 00:36:49;;;;;;;7.00;5.50;;;16.70;99.20;;;;;;6072163;23;20909;-78
2021/07/20 00:39:18;;;;;;;6.53;5.17;;;16.70;99.20;;;;;;6075401;23;20444;-78
2021/07/20 00:41:50;;;;;;;7.77;5.97;;;16.70;99.20;;;;;;6079022;23;20443;-78
2021/07/20 00:44:19;;;;;;;7.80;5.90;;;16.70;99.30;;;;;;6080503;23;20893;-78
2021/07/20 00:46:49;;;;;;;6.63;5.90;;;16.70;99.30;;;;;;6072622;23;20443;-77
2021/07/20 00:49:17;;;;;;;5.60;4.80;;;16.60;99.30;;;;;;6107440;23;20431;-78
2021/07/20 00:51:45;;;;;;;6.17;5.00;;;16.70;99.40;;;;;;6072685;23;20448;-78
2021/07/20 00:54:14;;;;;;;7.80;5.20;;;16.70;99.40;;;;;;6073169;23;20446;-78
2021/07/20 00:56:43;;;;;;;8.67;5.80;;;16.70;99.40;;;;;;6097512;23;20409;-78
2021/07/20 00:59:14;;;;;;;8.10;5.23;;;16.60;99.40;;;;;;6072038;23;20894;-78
2021/07/20 01:01:47;;;;;;;6.80;4.73;;;16.70;99.40;;;;;;6079151;23;20415;-78
2021/07/20 01:04:19;;;;;;;5.63;4.63;;;16.70;99.40;;;;;;6073666;23;20487;-78
2021/07/20 01:06:52;;;;;;;6.83;5.70;;;16.60;99.40;;;;;;6072926;23;20435;-78
2021/07/20 01:09:22;;;;;;;8.90;6.27;;;16.60;99.40;;;;;;6077453;23;20975;-78
2021/07/20 01:11:52;;;;;;;7.70;5.53;;;16.60;99.40;;;;;;6072483;23;20477;-78
2021/07/20 01:14:24;;;;;;;7.93;5.50;;;16.60;99.40;;;;;;6072573;23;20413;-78
2021/07/20 01:16:54;;;;;;;6.70;5.50;;;16.60;99.50;;;;;;6075095;23;20459;-78
2021/07/20 01:19:27;;;;;;;9.90;6.27;;;16.60;99.50;;;;;;6077390;23;20429;-78
2021/07/20 01:22:03;;;;;;;7.80;5.80;;;16.60;99.50;;;;;;6076064;23;20439;-78
2021/07/20 01:24:35;;;;;;;6.17;5.23;;;16.60;99.60;;;;;;6074204;23;20420;-78
2021/07/20 01:27:04;;;;;;;7.50;6.13;;;16.60;99.60;;;;;;6073098;23;20453;-78
2021/07/20 01:29:32;;;;;;;7.47;5.67;;;16.60;99.60;;;;;;6076555;23;20422;-78
2021/07/20 01:32:06;;;;;;;6.30;5.40;;;16.60;99.60;;;;;;6075441;23;20424;-78
2021/07/20 01:34:35;;;;;;;7.82;5.72;;;16.60;99.70;;;;;;6073381;23;20895;-78
2021/07/20 01:37:07;;;;;;;6.20;4.90;;;16.70;99.90;;;;;;6075354;23;20206;-78
2021/07/20 01:39:42;;;;;;;9.30;6.50;;;16.70;99.90;;;;;;6077016;23;20406;-78
2021/07/20 01:42:14;;;;;;;9.60;5.40;;;16.70;99.90;;;;;;6074401;23;20448;-78
2021/07/20 01:44:44;;;;;;;6.90;5.70;;;16.60;99.90;;;;;;6074397;23;20418;-78
2021/07/20 01:47:13;;;;;;;6.80;5.50;;;16.60;99.90;;;;;;6074280;23;20921;-78
2021/07/20 01:49:44;;;;;;;8.30;6.27;;;16.60;99.90;;;;;;6099748;23;20410;-78
2021/07/20 01:52:13;;;;;;;7.10;5.70;;;16.60;99.90;;;;;;6073521;23;20423;-78
2021/07/20 01:54:46;;;;;;;8.00;5.80;;;16.60;99.90;;;;;;6073806;23;20438;-78
2021/07/20 01:57:18;;;;;;;10.70;7.60;;;16.60;99.90;;;;;;6073916;23;20438;-78
2021/07/20 02:00:23;;;;;;;7.47;5.20;;;16.60;99.90;;;;;;5992333;24;20434;-78
2021/07/20 02:03:23;;;;;;;6.43;5.73;;;16.60;99.90;;;;;;6097033;23;20411;-78
2021/07/20 02:08:56;;;;;;;8.37;6.43;;;16.60;99.90;;;;;;6074624;23;20425;-78
2021/07/20 02:11:33;;;;;;;7.63;5.87;;;16.50;99.90;;;;;;6074265;23;20415;-78
2021/07/20 02:14:12;;;;;;;7.73;6.40;;;16.50;99.90;;;;;;6074039;23;20429;-78
2021/07/20 02:17:02;;;;;;;7.70;6.17;;;16.50;99.90;;;;;;6100118;23;20390;-78
2021/07/20 02:19:37;;;;;;;6.97;6.20;;;16.50;99.90;;;;;;6073406;23;20394;-78
2021/07/20 02:22:20;;;;;;;7.43;6.13;;;16.50;99.90;;;;;;6074524;23;20460;-78
2021/07/20 02:24:51;;;;;;;6.53;5.47;;;16.50;99.90;;;;;;6073784;23;20384;-78
2021/07/20 02:27:24;;;;;;;6.47;5.20;;;16.50;99.90;;;;;;6074015;23;20424;-78
2021/07/20 02:30:06;;;;;;;7.27;5.83;;;16.50;99.90;;;;;;6073650;23;20414;-78
2021/07/20 02:32:36;;;;;;;8.90;6.30;;;16.50;99.90;;;;;;6109336;23;20420;-78
2021/07/20 02:35:23;;;;;;;6.47;5.80;;;16.50;99.90;;;;;;6109025;23;20425;-78
2021/07/20 02:37:55;;;;;;;8.47;5.80;;;16.40;99.90;;;;;;6074451;23;20395;-78
2021/07/20 02:40:27;;;;;;;8.97;6.40;;;16.40;99.90;;;;;;6073071;23;20499;-78
2021/07/20 02:43:00;;;;;;;6.57;5.50;;;16.50;99.90;;;;;;6073879;23;20432;-78
2021/07/20 02:45:34;;;;;;;13.10;6.57;;;16.40;99.90;;;;;;6073819;23;20412;-78
2021/07/20 02:48:08;;;;;;;7.80;6.27;;;16.40;99.90;;;;;;6074220;23;20413;-78
2021/07/20 02:50:37;;;;;;;8.98;6.85;;;16.40;99.90;;;;;;6072435;23;20829;-78
2021/07/20 02:53:14;;;;;;;8.23;6.03;;;16.50;99.90;;;;;;6073739;23;20166;-78
2021/07/20 02:55:54;;;;;;;7.87;6.00;;;16.50;99.90;;;;;;6073660;23;20416;-78
2021/07/20 02:58:26;;;;;;;8.18;6.53;;;16.50;99.90;;;;;;6074277;23;20950;-78
2021/07/20 03:00:57;;;;;;;7.73;6.93;;;16.50;99.90;;;;;;6076249;23;20581;-78
2021/07/20 03:03:27;;;;;;;7.60;5.90;;;16.40;99.90;;;;;;6109524;23;20453;-78
2021/07/20 03:06:00;;;;;;;7.50;6.17;;;16.40;99.90;;;;;;6074974;23;20418;-78
2021/07/20 03:08:33;;;;;;;6.70;5.73;;;16.40;99.90;;;;;;6073474;23;20809;-78
2021/07/20 03:11:15;;;;;;;7.60;5.30;;;16.40;99.90;;;;;;6073575;23;20442;-78
2021/07/20 03:13:49;;;;;;;7.23;5.30;;;16.40;99.90;;;;;;6073814;23;20518;-78
2021/07/20 03:16:19;;;;;;;7.00;5.50;;;16.40;99.90;;;;;;6073341;23;20421;-78
2021/07/20 03:18:51;;;;;;;7.53;6.30;;;16.40;99.90;;;;;;6073286;23;20431;-78
2021/07/20 03:21:21;;;;;;;10.67;7.13;;;16.40;99.90;;;;;;6073060;23;20445;-78
2021/07/20 03:23:51;;;;;;;7.13;5.77;;;16.40;99.90;;;;;;6073576;23;20390;-78
2021/07/20 03:26:20;;;;;;;7.83;5.90;;;16.40;99.90;;;;;;6073309;23;20395;-78
2021/07/20 03:28:58;;;;;;;6.90;5.80;;;16.40;99.90;;;;;;6073556;23;20429;-78
2021/07/20 03:31:28;;;;;;;7.70;6.23;;;16.40;99.90;;;;;;6072978;23;20838;-78
2021/07/20 03:33:59;;;;;;;7.77;6.00;;;16.40;99.90;;;;;;6072666;23;20515;-77
2021/07/20 03:36:34;;;;;;;7.77;6.30;;;16.30;99.90;;;;;;6073145;23;20392;-78
2021/07/20 03:39:04;;;;;;;9.60;6.17;;;16.40;99.90;;;;;;6072674;23;20403;-78
2021/07/20 03:41:34;;;;;;;7.40;5.23;;;16.40;99.90;;;;;;6072783;23;20939;-78
2021/07/20 03:44:06;;;;;;;7.70;6.63;;;16.40;99.90;;;;;;6108152;23;20883;-78
2021/07/20 03:46:35;;;;;;;6.37;5.30;;;16.40;99.90;;;;;;6073958;23;20422;-78
2021/07/20 03:49:04;;;;;;;8.57;6.20;;;16.40;99.90;;;;;;6072615;23;20434;-78
2021/07/20 03:51:49;;;;;;;8.57;6.60;;;16.30;99.90;;;;;;6073287;23;20449;-78
2021/07/20 03:54:18;;;;;;;11.30;6.40;;;16.40;99.90;;;;;;6072434;23;20458;-78
2021/07/20 03:56:48;;;;;;;8.17;6.07;;;16.40;99.90;;;;;;6072373;23;20437;-78
2021/07/20 03:59:19;;;;;;;7.17;5.90;;;16.30;99.90;;;;;;6108116;23;20416;-78
2021/07/20 04:02:09;;;;;;;8.30;6.10;;;16.40;99.90;;;;;;6108066;23;20415;-78
2021/07/20 04:04:41;;;;;;;9.07;5.43;;;16.30;99.90;;;;;;6073687;23;20417;-78
2021/07/20 04:07:15;;;;;;;8.53;6.87;;;16.30;99.90;;;;;;6072949;23;20437;-78
2021/07/20 04:10:02;;;;;;;7.70;6.20;;;16.30;99.90;;;;;;6072404;23;20867;-78
2021/07/20 04:12:48;;;;;;;7.40;6.00;;;16.30;99.90;;;;;;6097829;23;20450;-78
2021/07/20 04:15:47;;;;;;;7.90;5.88;;;16.30;99.90;;;;;;6071868;23;20406;-78
2021/07/20 04:18:20;;;;;;;5.73;5.13;;;16.30;99.90;;;;;;6072147;23;20214;-77
2021/07/20 04:20:49;;;;;;;13.33;6.70;;;16.30;99.90;;;;;;6072272;23;20443;-78
2021/07/20 04:23:21;;;;;;;8.63;7.17;;;16.30;99.90;;;;;;6108448;23;20433;-78
2021/07/20 04:26:02;;;;;;;6.77;5.90;;;16.30;99.90;;;;;;6072652;23;20412;-78
2021/07/20 04:28:36;;;;;;;7.00;5.73;;;16.30;99.90;;;;;;6074001;23;20423;-78
2021/07/20 04:31:11;;;;;;;7.50;6.03;;;16.30;99.90;;;;;;6072316;23;20819;-78
2021/07/20 04:33:40;;;;;;;7.80;5.97;;;16.30;99.90;;;;;;6072641;23;20392;-78
2021/07/20 04:36:27;;;;;;;7.37;6.23;;;16.30;99.90;;;;;;6107869;23;20761;-78
2021/07/20 04:39:05;;;;;;;10.57;6.47;;;16.30;99.90;;;;;;6072281;23;20455;-78
2021/07/20 04:41:37;;;;;;;5.63;5.03;;;16.30;99.90;;;;;;6074100;23;20449;-78
2021/07/20 04:44:07;;;;;;;7.73;6.10;;;16.30;99.90;;;;;;6077258;23;20419;-78
2021/07/20 04:46:50;;;;;;;8.30;6.20;;;16.30;99.90;;;;;;6075514;23;20567;-78
2021/07/20 04:49:20;;;;;;;7.73;6.80;;;16.30;99.90;;;;;;6108151;23;20383;-78
2021/07/20 04:51:51;;;;;;;6.47;5.87;;;16.30;99.90;;;;;;6072720;23;20558;-78
2021/07/20 04:54:22;;;;;;;7.07;4.90;;;16.40;99.90;;;;;;6072204;23;20414;-78
2021/07/20 04:57:00;;;;;;;7.13;5.40;;;16.40;99.90;;;;;;6073264;23;20475;-78
2021/07/20 04:59:32;;;;;;;9.13;5.90;;;16.40;99.90;;;;;;6073253;23;20734;-78
2021/07/20 05:02:07;;;;;;;7.03;5.70;;;16.40;99.90;;;;;;6072526;23;20448;-78
2021/07/20 05:04:42;;;;;;;8.50;5.80;;;16.40;99.90;;;;;;6072535;23;20782;-78
2021/07/20 05:07:14;;;;;;;5.20;4.70;;;16.40;99.90;;;;;;6072349;23;20468;-78
2021/07/20 05:09:51;;;;;;;6.37;5.47;;;16.40;99.90;;;;;;6074330;23;20429;-79
2021/07/20 05:12:21;;;;;;;8.93;5.60;;;16.40;99.90;;;;;;6073179;23;20753;-78
2021/07/20 05:14:59;;;;;;;8.33;6.30;;;16.40;99.90;;;;;;6073951;23;20440;-79
2021/07/20 05:17:40;;;;;;;8.20;5.40;;;16.40;99.90;;;;;;6073621;23;20437;-79
2021/07/20 05:20:13;;;;;;;6.73;5.40;;;16.40;99.90;;;;;;6073743;23;20519;-79
2021/07/20 05:23:02;;;;;;;6.70;5.20;;;16.40;99.90;;;;;;6100381;23;20417;-80
2021/07/20 05:25:31;;;;;;;7.18;5.43;;;16.40;99.90;;;;;;6110965;23;20294;-80
2021/07/20 05:28:01;;;;;;;6.40;4.97;;;16.40;99.90;;;;;;6110298;23;20538;-80
2021/07/20 05:30:33;;;;;;;8.17;5.80;;;16.40;99.90;;;;;;6074404;23;20445;-79
2021/07/20 05:33:04;;;;;;;7.13;5.40;;;16.40;99.90;;;;;;6075619;23;20399;-79
2021/07/20 05:35:44;;;;;;;6.25;5.35;;;16.40;99.90;;;;;;6074460;23;20864;-79
2021/07/20 05:38:14;;;;;;;9.30;7.03;;;16.50;99.90;;;;;;6074136;23;20426;-79
2021/07/20 05:40:57;;;;;;;6.70;5.10;;;16.40;99.90;;;;;;6073720;23;20984;-79
2021/07/20 05:43:28;;;;;;;9.10;5.90;;;16.50;99.90;;;;;;6074245;23;20423;-79
2021/07/20 05:46:00;;;;;;;8.33;5.00;;;16.50;99.90;;;;;;6074019;23;20894;-75
2021/07/20 05:48:31;;;;;;;6.40;4.83;;;16.50;99.90;;;;;;6109548;23;20397;-78
2021/07/20 05:51:05;;;;;;;8.83;5.20;;;16.50;99.90;;;;;;6073805;23;20465;-79
2021/07/20 05:53:39;;;;;;;6.67;5.23;;;16.50;99.90;;;;;;6073011;23;20859;-79
2021/07/20 05:56:37;;;;;;;6.10;4.37;;;16.50;99.90;;;;;;6006471;23;20414;-80
2021/07/20 05:59:27;;;;;;;6.60;4.97;;;16.50;99.90;;;;;;6073732;23;20806;-80
2021/07/20 06:02:09;;;;;;;6.93;5.43;;;16.60;99.90;;;;;;6074911;23;20450;-81
2021/07/20 06:04:44;;;;;;;6.13;5.10;;;16.60;99.90;;;;;;6074454;23;20552;-81
2021/07/20 06:07:26;;;;;;;7.57;5.70;;;16.60;99.90;;;;;;6075497;23;20434;-80
2021/07/20 06:09:56;;;;;;;7.00;4.90;;;16.60;99.90;;;;;;6075471;23;20762;-81
2021/07/20 06:12:24;;;;;;;7.60;5.47;;;16.60;99.90;;;;;;6100270;23;20462;-81
2021/07/20 06:14:55;;;;;;;7.30;5.30;;;16.60;99.90;;;;;;6073886;23;20429;-81
2021/07/20 06:17:24;;;;;;;6.70;5.00;;;16.70;99.90;;;;;;6074023;23;20470;-81
2021/07/20 06:19:55;;;;;;;7.33;5.43;;;16.70;99.90;;;;;;6101549;23;20433;-80
2021/07/20 06:22:35;;;;;;;6.37;5.07;;;16.80;99.90;;;;;;6075856;23;20416;-80
2021/07/20 06:25:09;;;;;;;7.70;5.57;;;16.80;99.90;;;;;;6077996;23;20421;-81
2021/07/20 06:27:38;;;;;;;8.57;5.50;;;16.80;99.90;;;;;;6076172;23;20858;-81
2021/07/20 06:30:08;;;;;;;6.40;5.20;;;16.90;99.90;;;;;;6078379;23;20470;-81
2021/07/20 06:32:38;;;;;;;5.90;5.30;;;16.90;99.90;;;;;;6078723;23;20429;-81
2021/07/20 06:35:10;;;;;;;8.67;5.63;;;16.90;99.90;;;;;;6077308;23;20414;-81
2021/07/20 06:37:42;;;;;;;5.70;4.87;;;17.00;99.90;;;;;;6077123;23;20425;-81
2021/07/20 06:40:15;;;;;;;5.30;4.80;;;17.00;99.90;;;;;;6111684;23;20423;-81
2021/07/20 06:42:46;;;;;;;6.20;5.33;;;17.00;99.90;;;;;;6076292;23;20512;-81
2021/07/20 06:45:20;;;;;;;6.50;4.93;;;17.10;99.90;;;;;;6112045;23;20411;-80
2021/07/20 06:47:56;;;;;;;8.67;6.00;;;17.10;99.90;;;;;;6076740;23;20411;-81
2021/07/20 06:50:35;;;;;;;7.50;5.43;;;17.10;99.90;;;;;;6077453;23;20453;-80
2021/07/20 06:53:07;;;;;;;4.57;4.17;;;17.10;99.90;;;;;;6111666;23;20387;-81
2021/07/20 06:55:38;;;;;;;9.20;5.90;;;17.20;99.90;;;;;;6077790;23;20423;-81
2021/07/20 06:58:08;;;;;;;5.80;4.80;;;17.20;99.90;;;;;;6112370;23;20543;-81
2021/07/20 07:00:37;;;;;;;6.97;6.23;;;17.20;99.90;;;;;;6105001;23;20412;-81
2021/07/20 07:03:07;;;;;;;6.33;4.70;;;17.20;99.90;;;;;;6077412;23;20493;-81
2021/07/20 07:05:42;;;;;;;6.73;5.37;;;17.30;99.90;;;;;;6076355;23;20414;-81
2021/07/20 07:08:14;;;;;;;6.27;5.40;;;17.30;99.90;;;;;;6111138;23;20414;-81
2021/07/20 07:23:06;;;;;;;6.70;5.50;;;17.60;99.90;;;;;;5867811;24;20757;-81
2021/07/20 07:25:39;;;;;;;6.10;5.50;;;17.60;99.90;;;;;;5931022;24;20903;-81
2021/07/20 07:28:08;;;;;;;5.43;4.47;;;17.70;99.90;;;;;;5939612;24;20426;-81
2021/07/20 07:30:37;;;;;;;5.50;4.80;;;17.70;99.90;;;;;;5956959;23;20519;-81
2021/07/20 07:33:05;;;;;;;5.30;4.23;;;17.70;99.90;;;;;;6021974;23;20924;-81
2021/07/20 07:35:34;;;;;;;10.60;4.80;;;17.70;99.90;;;;;;5990974;23;20426;-80
2021/07/20 07:38:04;;;;;;;6.10;4.97;;;17.70;99.90;;;;;;5989668;23;20548;-81
2021/07/20 07:40:34;;;;;;;7.93;4.63;;;17.80;99.90;;;;;;6022285;23;20425;-81
2021/07/20 07:43:05;;;;;;;7.80;4.77;;;17.80;99.90;;;;;;5990376;23;20413;-81
2021/07/20 07:45:36;;;;;;;5.60;5.10;;;17.80;99.90;;;;;;5989575;23;20421;-81
2021/07/20 07:48:09;;;;;;;7.10;5.17;;;17.80;99.90;;;;;;5989848;23;20442;-81
2021/07/20 07:50:37;;;;;;;6.47;4.90;;;17.80;99.90;;;;;;5989600;23;20470;-81
2021/07/20 07:53:07;;;;;;;5.77;4.40;;;17.90;99.90;;;;;;6068517;23;20411;-82
2021/07/20 07:55:36;;;;;;;6.47;4.87;;;17.90;99.90;;;;;;6083122;23;20443;-80
2021/07/20 07:58:07;;;;;;;7.27;5.13;;;17.90;99.90;;;;;;6097149;23;20446;-80
2021/07/20 08:00:39;;;;;;;5.70;5.10;;;18.00;99.90;;;;;;6088746;23;20812;-81
2021/07/20 08:03:09;;;;;;;6.40;4.72;;;18.00;99.90;;;;;;6112837;23;20404;-82
2021/07/20 08:05:37;;;;;;;5.83;4.70;;;18.00;99.90;;;;;;6101964;23;20178;-81
2021/07/20 08:08:08;;;;;;;4.33;3.93;;;18.10;99.90;;;;;;6077027;23;20429;-81
2021/07/20 08:10:37;;;;;;;6.77;5.07;;;18.10;99.90;;;;;;6075941;23;20431;-80
2021/07/20 08:13:07;;;;;;;7.57;5.05;;;18.20;99.90;;;;;;6100449;23;20412;-80
2021/07/20 08:15:36;;;;;;;5.33;4.80;;;18.20;99.90;;;;;;6110055;23;20167;-81
2021/07/20 08:18:08;;;;;;;5.27;3.60;;;18.30;99.90;;;;;;6074204;23;20454;-80
2021/07/20 08:20:37;;;;;;;4.83;4.37;;;18.30;99.90;;;;;;6074235;23;20446;-80
2021/07/20 08:23:08;;;;;;;5.30;3.70;;;18.30;99.90;;;;;;6110220;23;20449;-80
2021/07/20 08:25:40;;;;;;;9.73;4.90;;;18.30;99.90;;;;;;6074850;23;20446;-80
2021/07/20 08:28:10;;;;;;;6.33;4.70;;;18.30;99.90;;;;;;6074674;23;20402;-80
2021/07/20 08:30:42;;;;;;;5.43;4.30;;;18.40;99.90;;;;;;6074784;23;20438;-80
2021/07/20 08:33:17;;;;;;;6.60;5.43;;;18.40;99.90;;;;;;6074291;23;20425;-80
2021/07/20 08:35:49;;;;;;;5.60;5.10;;;18.40;99.90;;;;;;6100037;23;20402;-80
2021/07/20 08:38:21;;;;;;;5.90;5.20;;;18.40;99.90;;;;;;6099342;23;20910;-80
2021/07/20 08:41:15;;;;;;;5.10;4.60;;;18.40;99.90;;;;;;6074158;23;20525;-81
2021/07/20 08:43:57;;;;;;;6.70;4.67;;;18.50;99.90;;;;;;6074122;23;20453;-80
2021/07/20 08:46:43;;;;;;;5.30;4.53;;;18.50;99.90;;;;;;6074616;23;20439;-80
2021/07/20 08:49:41;;;;;;;6.03;5.43;;;18.50;99.90;;;;;;6074296;23;20415;-80
2021/07/20 08:52:16;;;;;;;5.43;4.70;;;18.60;99.90;;;;;;6099705;23;20761;-80
2021/07/20 08:54:52;;;;;;;6.60;5.30;;;18.60;99.90;;;;;;6075627;23;20469;-80
2021/07/20 08:57:27;;;;;;;6.27;5.67;;;18.60;99.90;;;;;;6111683;23;20419;-81
2021/07/20 09:00:06;;;;;;;7.97;5.23;;;18.60;99.80;;;;;;6074767;23;20406;-80
2021/07/20 09:02:45;;;;;;;7.47;5.30;;;18.60;99.80;;;;;;6074473;23;20420;-80
2021/07/20 09:05:19;;;;;;;6.57;5.70;;;18.60;99.80;;;;;;6074849;23;20415;-81
2021/07/20 09:07:58;;;;;;;7.10;4.97;;;18.80;99.90;;;;;;6073858;23;20429;-81
2021/07/20 09:10:33;;;;;;;7.07;5.90;;;19.00;99.90;;;;;;6074685;23;20441;-80
2021/07/20 09:13:04;;;;;;;9.03;5.80;;;19.20;99.90;;;;;;6075338;23;20418;-81
2021/07/20 09:15:36;;;;;;;7.27;5.43;;;19.40;99.90;;;;;;6074231;23;20609;-80
2021/07/20 09:18:16;;;;;;;7.07;6.10;;;19.60;99.70;;;;;;6109378;23;20519;-80
2021/07/20 09:20:50;;;;;;;6.43;5.77;;;19.70;99.50;;;;;;6074232;23;20222;-80
2021/07/20 09:23:24;;;;;;;7.90;5.93;;;19.90;99.40;;;;;;6074123;23;20478;-81
2021/07/20 09:26:01;;;;;;;7.27;5.97;;;19.90;99.20;;;;;;6073541;23;20410;-80
2021/07/20 09:28:39;;;;;;;6.80;5.97;;;20.00;99.10;;;;;;6073112;23;20499;-80
2021/07/20 09:31:17;;;;;;;8.77;5.97;;;20.10;98.20;;;;;;6073640;23;20442;-81
2021/07/20 09:33:56;;;;;;;7.03;5.40;;;20.10;98.30;;;;;;6109506;23;20394;-80
2021/07/20 09:36:29;;;;;;;6.57;5.10;;;20.20;98.30;;;;;;6109260;23;20415;-80
2021/07/20 09:39:18;;;;;;;6.33;5.00;;;20.20;98.40;;;;;;6074160;23;20509;-81
2021/07/20 09:41:52;;;;;;;6.33;5.33;;;20.20;98.30;;;;;;6109711;23;20415;-80
2021/07/20 09:44:26;;;;;;;7.47;5.60;;;20.20;98.50;;;;;;6079209;23;20442;-80
2021/07/20 09:47:09;;;;;;;6.67;5.30;;;20.20;98.20;;;;;;6076733;23;20458;-80
2021/07/20 09:49:49;;;;;;;6.03;5.00;;;20.20;98.10;;;;;;6074413;23;20423;-81
2021/07/20 09:53:04;;;;;;;6.57;4.90;;;20.20;98.10;;;;;;6074281;23;20415;-81
2021/07/20 09:55:41;;;;;;;5.80;5.20;;;20.20;98.00;;;;;;6021089;23;20417;-80
2021/07/20 09:58:21;;;;;;;5.73;5.13;;;20.50;98.10;;;;;;6082224;23;20945;-80
2021/07/20 10:01:02;;;;;;;5.83;5.23;;;20.60;98.10;;;;;;6101482;23;20473;-81
2021/07/20 10:03:46;;;;;;;5.73;4.67;;;20.80;98.00;;;;;;6111674;23;20379;-81
2021/07/20 10:06:19;;;;;;;6.10;5.50;;;20.90;97.90;;;;;;6076317;23;20414;-80
2021/07/20 10:08:55;;;;;;;6.13;5.53;;;21.00;97.90;;;;;;6076654;23;20506;-81
2021/07/20 10:11:30;;;;;;;6.07;5.47;;;21.00;97.60;;;;;;6076303;23;20434;-80
2021/07/20 10:14:28;;;;;;;6.60;5.90;;;21.00;97.60;;;;;;6111258;23;20387;-80
2021/07/20 10:17:06;;;;;;;6.20;5.60;;;21.00;97.50;;;;;;6076339;23;20418;-80
2021/07/20 10:19:41;;;;;;;7.00;5.30;;;21.00;97.40;;;;;;6076707;23;20497;-80
2021/07/20 10:22:12;;;;;;;6.10;4.93;;;21.00;97.20;;;;;;6101750;23;20436;-80
2021/07/20 10:24:49;;;;;;;5.80;5.20;;;20.90;97.10;;;;;;6075001;23;20506;-80
2021/07/20 10:27:25;;;;;;;6.83;5.20;;;20.90;96.60;;;;;;6100559;23;20163;-80
2021/07/20 10:30:02;;;;;;;6.60;5.03;;;21.00;96.80;;;;;;6075057;23;20422;-79
2021/07/20 10:32:41;;;;;;;6.78;5.45;;;21.10;96.80;;;;;;6078332;23;20364;-81
2021/07/20 10:35:18;;;;;;;7.23;6.07;;;21.20;96.70;;;;;;6076187;23;20171;-80
2021/07/20 10:37:50;;;;;;;6.03;5.10;;;21.30;96.60;;;;;;6076753;23;20437;-80
2021/07/20 10:40:20;;;;;;;7.40;5.93;;;21.40;96.60;;;;;;6075654;23;20438;-80
2021/07/20 10:42:55;;;;;;;7.10;4.83;;;21.50;96.50;;;;;;6075531;23;20446;-80
2021/07/20 10:45:32;;;;;;;6.27;5.10;;;21.50;96.50;;;;;;6101520;23;20400;-80
2021/07/20 10:48:05;;;;;;;8.70;6.10;;;21.60;96.50;;;;;;6111112;23;20390;-80
2021/07/20 10:50:39;;;;;;;6.03;5.20;;;21.70;96.40;;;;;;6111282;23;20474;-80
2021/07/20 10:53:16;;;;;;;5.30;4.80;;;21.80;96.40;;;;;;6076073;23;20414;-81
2021/07/20 10:55:54;;;;;;;6.27;5.20;;;21.80;96.40;;;;;;6075973;23;20418;-81
2021/07/20 10:58:30;;;;;;;8.03;5.70;;;21.80;96.40;;;;;;6111512;23;20450;-81
2021/07/20 11:01:03;;;;;;;5.13;4.73;;;21.80;96.40;;;;;;6077277;23;20838;-80
2021/07/20 11:03:41;;;;;;;6.03;5.43;;;21.90;96.40;;;;;;6113235;23;20419;-80
2021/07/20 11:06:13;;;;;;;5.93;4.70;;;21.90;96.40;;;;;;6076754;23;20447;-80
2021/07/20 11:08:48;;;;;;;5.97;4.80;;;22.00;96.30;;;;;;6085601;23;20777;-80
2021/07/20 11:11:21;;;;;;;8.57;6.50;;;21.90;96.20;;;;;;6095977;23;20419;-79
2021/07/20 11:13:55;;;;;;;7.97;5.10;;;22.00;96.20;;;;;;6086830;23;20444;-80
2021/07/20 11:16:30;;;;;;;7.67;5.00;;;21.90;95.90;;;;;;6077701;23;20412;-81
2021/07/20 11:19:03;;;;;;;6.90;5.80;;;21.90;95.80;;;;;;6103196;23;20430;-81
2021/07/20 11:21:33;;;;;;;7.27;6.30;;;21.80;95.80;;;;;;6112469;23;20414;-81
2021/07/20 11:24:02;;;;;;;7.83;5.60;;;21.80;95.80;;;;;;6112191;23;20418;-80
2021/07/20 11:26:32;;;;;;;6.17;4.73;;;21.80;95.70;;;;;;6112847;23;20402;-80
2021/07/20 11:29:01;;;;;;;6.33;5.73;;;21.80;95.80;;;;;;6111897;23;20403;-81
2021/07/20 11:31:36;;;;;;;6.45;5.60;;;21.90;95.80;;;;;;6111423;23;20403;-80
2021/07/20 11:34:10;;;;;;;5.60;4.77;;;22.00;95.30;;;;;;6076865;23;20190;-81
2021/07/20 11:36:41;;;;;;;6.50;5.80;;;22.00;95.40;;;;;;6078044;23;20429;-80
2021/07/20 11:39:13;;;;;;;9.80;7.23;;;22.00;95.50;;;;;;6077262;23;20443;-80
2021/07/20 11:41:53;;;;;;;8.23;5.77;;;22.00;95.40;;;;;;6111737;23;20410;-80
2021/07/20 11:44:32;;;;;;;6.07;5.37;;;22.00;95.40;;;;;;6076570;23;20417;-80
2021/07/20 11:47:07;;;;;;;5.83;5.23;;;22.10;95.60;;;;;;6076228;23;20806;-81
2021/07/20 11:49:44;;;;;;;5.53;5.03;;;22.10;95.30;;;;;;6111444;23;20414;-81
2021/07/20 11:52:16;;;;;;;6.90;4.80;;;22.10;95.40;;;;;;6111454;23;20426;-80
2021/07/20 11:55:00;;;;;;;5.90;4.70;;;22.20;95.40;;;;;;6076300;23;20470;-80
2021/07/20 11:58:00;;;;;;;6.73;4.80;;;22.20;95.40;;;;;;6076447;23;20415;-80
2021/07/20 12:01:02;;;;;;;5.73;5.17;;;22.30;95.20;;;;;;6015069;23;20438;-80
2021/07/20 12:03:41;;;;;;;5.93;5.37;;;22.30;95.30;;;;;;6068420;23;20465;-81
2021/07/20 12:06:28;;;;;;;5.50;5.00;;;22.30;95.40;;;;;;6112244;23;20402;-80
2021/07/20 12:09:12;;;;;;;7.63;6.13;;;22.30;95.20;;;;;;6076131;23;20411;-80
2021/07/20 12:11:50;;;;;;;6.17;5.57;;;22.40;95.20;;;;;;6075492;23;20446;-80
2021/07/20 12:14:18;;;;;;;7.47;4.63;;;22.30;95.10;;;;;;6076320;23;20410;-80
2021/07/20 12:16:48;;;;;;;7.43;5.17;;;22.30;95.00;;;;;;6076210;23;20939;-80
2021/07/20 12:19:28;;;;;;;6.90;6.20;;;22.30;95.00;;;;;;6075471;23;20446;-81
2021/07/20 12:22:02;;;;;;;6.27;4.87;;;22.40;95.10;;;;;;6076086;23;20445;-80
2021/07/20 12:24:30;;;;;;;6.97;5.90;;;22.40;95.10;;;;;;6111069;23;20400;-80
2021/07/20 12:26:59;;;;;;;6.83;5.87;;;22.50;94.90;;;;;;6076139;23;20410;-81
2021/07/20 12:29:29;;;;;;;7.40;5.17;;;22.50;94.90;;;;;;6075822;23;20430;-80
2021/07/20 12:32:00;;;;;;;5.90;5.30;;;22.60;95.10;;;;;;6076299;23;20434;-80
2021/07/20 12:34:30;;;;;;;7.67;5.87;;;22.70;95.20;;;;;;6111523;23;20387;-80
2021/07/20 12:36:58;;;;;;;7.23;5.77;;;22.80;95.00;;;;;;6110417;23;20387;-79
2021/07/20 12:39:29;;;;;;;7.17;5.73;;;22.90;95.00;;;;;;6110324;23;20470;-80
2021/07/20 12:41:57;;;;;;;6.90;6.20;;;23.00;95.00;;;;;;6109383;23;20419;-79
2021/07/20 12:44:37;;;;;;;6.70;5.50;;;23.00;94.90;;;;;;6109338;23;20397;-79
2021/07/20 12:47:07;;;;;;;6.30;5.67;;;23.00;94.80;;;;;;6110073;23;20389;-79
2021/07/20 12:49:39;;;;;;;6.73;6.03;;;23.00;94.80;;;;;;6074922;23;20411;-79
2021/07/20 12:52:09;;;;;;;7.10;6.13;;;23.00;94.80;;;;;;6109169;23;20463;-75
2021/07/20 12:54:40;;;;;;;11.03;6.30;;;23.00;94.80;;;;;;6195894;23;20435;-75
2021/07/20 12:57:11;;;;;;;9.13;6.00;;;23.10;94.90;;;;;;6159491;23;20451;-75
2021/07/20 13:00:00;;;;;;;6.53;5.63;;;23.20;94.80;;;;;;6157817;23;20412;-75
2021/07/20 13:02:31;;;;;;;6.30;5.47;;;23.30;94.70;;;;;;6129961;23;20460;-75
2021/07/20 13:05:04;;;;;;;6.73;5.50;;;23.20;94.50;;;;;;6129926;23;20491;-75
2021/07/20 13:07:34;;;;;;;7.93;6.47;;;23.20;94.50;;;;;;6165922;23;20404;-75
2021/07/20 13:10:06;;;;;;;7.17;5.40;;;23.20;94.60;;;;;;6165598;23;20393;-75
2021/07/20 13:12:40;;;;;;;7.00;5.93;;;23.10;94.50;;;;;;6129941;23;20488;-75
2021/07/20 13:15:19;;;;;;;9.43;5.63;;;23.10;94.50;;;;;;6165893;23;20388;-75
2021/07/20 13:17:51;;;;;;;6.10;5.50;;;23.10;94.60;;;;;;6129719;23;20420;-76
2021/07/20 13:20:22;;;;;;;5.50;4.73;;;23.00;94.70;;;;;;6166064;23;20961;-75
2021/07/20 13:22:51;;;;;;;7.93;6.32;;;23.00;94.60;;;;;;6165862;23;20400;-75
2021/07/20 13:25:21;;;;;;;6.50;5.90;;;23.00;94.50;;;;;;6165760;23;20212;-75
2021/07/20 13:27:50;;;;;;;8.87;5.97;;;22.90;94.50;;;;;;6129638;23;20421;-76
2021/07/20 13:30:20;;;;;;;6.80;5.57;;;22.90;94.50;;;;;;6129694;23;20451;-75
2021/07/20 13:32:50;;;;;;;6.00;5.40;;;22.80;94.50;;;;;;6129687;23;20497;-75
2021/07/20 13:35:21;;;;;;;7.73;6.73;;;22.80;94.60;;;;;;6129862;23;20416;-75
2021/07/20 13:37:50;;;;;;;6.77;5.30;;;22.80;94.70;;;;;;6166077;23;20387;-75